Time;durP1;ratioP1;P1;durP2;ratioP2;P2;SDS_P1;SDS_P2;PMS_P1;PMS_P2;Temp;Humidity;BMP_temperature;BMP_pressure;BME280_temperature;BME280_humidity;BME280_pressure;Samples;Min_cycle;Max_cycle;Signal;HPM_P1;HPM_P2
2024/02/23 00:01:53;;;;;;;0.30;0.30;;;5.00;99.90;;;;;;5047712;28;20200;-75
2024/02/23 00:04:19;;;;;;;0.50;0.40;;;5.10;99.90;;;;;;5045648;28;20210;-75
2024/02/23 00:06:46;;;;;;;0.30;0.20;;;5.10;99.90;;;;;;5045414;28;20195;-75
2024/02/23 00:09:13;;;;;;;0.47;0.20;;;5.00;99.90;;;;;;5042977;28;20204;-75
2024/02/23 00:11:44;;;;;;;3.70;0.40;;;5.00;99.90;;;;;;5042016;28;20195;-75
2024/02/23 00:14:11;;;;;;;0.30;0.20;;;5.00;99.90;;;;;;5046281;28;20227;-75
2024/02/23 00:16:41;;;;;;;0.40;0.40;;;5.50;99.90;;;;;;5045140;28;20601;-75
2024/02/23 00:19:09;;;;;;;0.50;0.50;;;5.00;99.90;;;;;;5047484;28;20196;-75
2024/02/23 00:21:36;;;;;;;0.60;0.45;;;5.00;99.90;;;;;;5047816;28;20570;-75
2024/02/23 00:24:03;;;;;;;0.40;0.30;;;5.00;99.90;;;;;;5047668;28;20207;-75
2024/02/23 00:26:30;;;;;;;1.10;0.43;;;5.00;99.90;;;;;;5047750;28;20752;-75
2024/02/23 00:28:58;;;;;;;1.02;0.32;;;5.10;99.90;;;;;;5047377;28;20274;-74
2024/02/23 00:31:25;;;;;;;1.48;0.43;;;5.10;99.90;;;;;;5047413;28;20199;-74
2024/02/23 00:33:52;;;;;;;0.77;0.50;;;5.10;99.90;;;;;;5047177;28;20203;-74
2024/02/23 00:36:18;;;;;;;0.75;0.50;;;5.00;99.90;;;;;;5048904;28;20232;-75
2024/02/23 00:38:46;;;;;;;0.40;0.20;;;5.20;99.90;;;;;;5051367;28;20207;-75
2024/02/23 00:41:12;;;;;;;0.40;0.30;;;5.10;99.90;;;;;;5051170;28;20210;-75
2024/02/23 00:43:40;;;;;;;3.50;0.63;;;5.10;99.90;;;;;;5050712;28;20195;-75
2024/02/23 00:46:08;;;;;;;1.30;0.50;;;5.00;99.90;;;;;;5051462;28;20195;-75
2024/02/23 00:48:35;;;;;;;0.40;0.32;;;5.10;99.90;;;;;;5051817;28;20202;-75
2024/02/23 00:51:02;;;;;;;0.52;0.32;;;5.20;99.90;;;;;;5051264;28;20198;-75
2024/02/23 00:53:29;;;;;;;0.47;0.47;;;5.10;99.90;;;;;;5050299;28;20191;-75
2024/02/23 00:55:56;;;;;;;0.70;0.30;;;5.10;99.90;;;;;;5051059;28;20663;-75
2024/02/23 00:58:23;;;;;;;1.10;0.60;;;5.10;99.90;;;;;;5049994;28;20654;-75
2024/02/23 01:00:49;;;;;;;2.80;0.70;;;5.20;99.90;;;;;;5051417;28;20188;-75
2024/02/23 01:03:17;;;;;;;0.68;0.50;;;5.20;99.90;;;;;;5043274;28;20199;-75
2024/02/23 01:05:44;;;;;;;1.08;0.50;;;5.20;99.90;;;;;;5051501;28;20195;-75
2024/02/23 01:08:11;;;;;;;0.77;0.45;;;5.20;99.90;;;;;;5050983;28;20211;-75
2024/02/23 01:10:38;;;;;;;0.50;0.40;;;5.30;99.90;;;;;;5049129;28;20210;-75
2024/02/23 01:13:05;;;;;;;5.70;0.60;;;5.10;99.90;;;;;;5049172;28;20196;-76
2024/02/23 01:15:32;;;;;;;1.92;0.80;;;5.20;99.90;;;;;;5051419;28;20196;-75
2024/02/23 01:17:59;;;;;;;2.63;0.60;;;5.30;99.90;;;;;;5045754;28;20644;-75
2024/02/23 01:20:27;;;;;;;1.55;0.55;;;5.40;99.90;;;;;;5047115;28;20203;-75
2024/02/23 01:22:53;;;;;;;1.77;0.70;;;5.40;99.90;;;;;;5050137;28;20203;-75
2024/02/23 01:25:20;;;;;;;1.95;0.73;;;5.40;99.90;;;;;;5045463;28;20192;-75
2024/02/23 01:27:48;;;;;;;0.65;0.47;;;5.30;99.90;;;;;;5049159;28;20235;-75
2024/02/23 01:30:15;;;;;;;0.57;0.50;;;5.30;99.90;;;;;;5049289;28;20749;-75
2024/02/23 01:32:42;;;;;;;0.47;0.47;;;5.30;99.90;;;;;;5049894;28;20208;-75
2024/02/23 01:35:09;;;;;;;1.35;0.75;;;5.30;99.90;;;;;;5049444;28;20206;-75
2024/02/23 01:37:37;;;;;;;1.10;0.73;;;5.30;99.90;;;;;;5044646;28;20230;-75
2024/02/23 01:40:06;;;;;;;3.47;0.80;;;5.30;99.90;;;;;;5045039;28;20193;-75
2024/02/23 01:42:33;;;;;;;0.90;0.77;;;5.30;99.90;;;;;;5045744;28;20268;-74
2024/02/23 01:45:01;;;;;;;6.75;0.75;;;5.20;99.90;;;;;;5049151;28;20712;-74
2024/02/23 01:47:29;;;;;;;2.30;0.70;;;5.30;99.90;;;;;;5048906;28;20220;-74
2024/02/23 01:49:57;;;;;;;0.65;0.60;;;5.30;99.90;;;;;;5049805;28;20195;-75
2024/02/23 01:52:24;;;;;;;0.80;0.80;;;5.20;99.90;;;;;;5045778;28;20202;-75
2024/02/23 01:54:53;;;;;;;1.17;0.70;;;5.20;99.90;;;;;;5042853;28;20307;-75
2024/02/23 01:57:20;;;;;;;1.08;0.63;;;5.20;99.90;;;;;;5046398;28;20253;-75
2024/02/23 01:59:46;;;;;;;1.25;0.57;;;5.30;99.90;;;;;;5043292;28;20215;-75
2024/02/23 02:02:13;;;;;;;1.02;0.47;;;5.30;99.90;;;;;;5042570;28;20620;-75
2024/02/23 02:04:40;;;;;;;0.88;0.40;;;5.30;99.90;;;;;;5047656;28;20204;-75
2024/02/23 02:07:07;;;;;;;2.25;0.60;;;5.40;99.90;;;;;;5048143;28;20208;-75
2024/02/23 02:09:34;;;;;;;3.50;0.90;;;5.30;99.90;;;;;;5046792;28;20623;-75
2024/02/23 02:12:02;;;;;;;0.50;0.50;;;5.30;99.90;;;;;;5042324;28;20654;-75
2024/02/23 02:14:31;;;;;;;1.98;0.68;;;5.30;99.90;;;;;;5047999;28;20293;-75
2024/02/23 02:16:58;;;;;;;1.70;0.70;;;5.30;99.90;;;;;;5049857;28;20216;-75
2024/02/23 02:19:26;;;;;;;0.73;0.60;;;5.30;99.90;;;;;;5043593;28;20219;-75
2024/02/23 02:21:53;;;;;;;0.40;0.40;;;5.40;99.90;;;;;;5046653;28;20208;-75
2024/02/23 02:24:21;;;;;;;0.88;0.82;;;5.30;99.90;;;;;;5049802;28;20625;-75
2024/02/23 02:26:50;;;;;;;3.05;0.80;;;5.40;99.90;;;;;;5048644;28;20756;-75
2024/02/23 02:29:19;;;;;;;0.85;0.80;;;5.20;99.90;;;;;;5050352;28;20193;-75
2024/02/23 02:31:46;;;;;;;0.73;0.60;;;5.20;99.90;;;;;;5044903;28;20196;-75
2024/02/23 02:34:14;;;;;;;0.60;0.60;;;5.20;99.90;;;;;;5049623;28;20559;-75
2024/02/23 02:36:42;;;;;;;0.60;0.50;;;5.20;99.90;;;;;;5049797;28;20580;-75
2024/02/23 02:39:11;;;;;;;0.60;0.50;;;5.10;99.90;;;;;;5038781;28;20212;-75
2024/02/23 02:41:38;;;;;;;0.65;0.52;;;5.10;99.90;;;;;;5048782;28;20219;-75
2024/02/23 02:44:04;;;;;;;1.27;0.65;;;5.00;99.90;;;;;;5048521;28;20574;-75
2024/02/23 02:46:33;;;;;;;1.42;0.90;;;4.90;99.90;;;;;;5045658;28;20184;-75
2024/02/23 02:48:59;;;;;;;1.40;0.88;;;4.90;99.90;;;;;;5048449;28;20307;-75
2024/02/23 02:51:26;;;;;;;1.23;0.60;;;5.00;99.90;;;;;;5044814;28;20239;-75
2024/02/23 02:53:53;;;;;;;1.20;0.63;;;5.00;99.90;;;;;;5048446;28;20239;-75
2024/02/23 02:56:20;;;;;;;3.78;1.00;;;4.90;99.90;;;;;;5044558;28;20295;-75
2024/02/23 02:58:47;;;;;;;1.13;0.65;;;4.80;99.90;;;;;;5045130;28;20248;-74
2024/02/23 03:01:13;;;;;;;0.70;0.65;;;4.90;99.90;;;;;;5046372;28;20868;-75
2024/02/23 03:03:42;;;;;;;1.25;0.75;;;4.80;99.90;;;;;;5040144;28;20684;-75
2024/02/23 03:06:09;;;;;;;1.80;0.85;;;4.80;99.90;;;;;;5045800;28;20599;-75
2024/02/23 03:08:36;;;;;;;0.80;0.65;;;4.90;99.90;;;;;;5049229;28;20223;-75
2024/02/23 03:11:03;;;;;;;1.70;0.77;;;4.80;99.90;;;;;;5042800;28;20294;-75
2024/02/23 03:13:31;;;;;;;0.50;0.50;;;4.80;99.90;;;;;;5049468;28;20286;-75
2024/02/23 03:15:59;;;;;;;2.38;0.77;;;4.90;99.90;;;;;;5048373;28;20211;-76
2024/02/23 03:18:27;;;;;;;1.15;0.70;;;4.80;99.90;;;;;;5043401;28;20235;-75
2024/02/23 03:20:56;;;;;;;0.95;0.63;;;4.80;99.90;;;;;;5046797;28;20212;-75
2024/02/23 03:23:24;;;;;;;0.70;0.70;;;4.80;99.90;;;;;;5047843;28;20204;-75
2024/02/23 03:25:52;;;;;;;0.70;0.70;;;4.80;99.90;;;;;;5045344;28;20258;-75
2024/02/23 03:28:19;;;;;;;0.90;0.70;;;4.80;99.90;;;;;;5045082;28;20203;-75
2024/02/23 03:30:47;;;;;;;2.13;0.90;;;4.80;99.90;;;;;;5043151;28;20768;-75
2024/02/23 03:33:15;;;;;;;1.30;0.70;;;4.80;99.90;;;;;;5047249;28;20207;-75
2024/02/23 03:35:43;;;;;;;1.52;0.65;;;4.70;99.90;;;;;;5048717;28;20211;-75
2024/02/23 03:38:12;;;;;;;0.50;0.50;;;4.80;99.90;;;;;;5048046;28;20211;-75
2024/02/23 03:40:39;;;;;;;1.23;0.75;;;4.70;99.90;;;;;;5044066;28;20562;-75
2024/02/23 03:43:07;;;;;;;1.50;0.70;;;4.70;99.90;;;;;;5047528;28;20207;-75
2024/02/23 03:45:35;;;;;;;1.20;0.65;;;4.70;99.90;;;;;;5048788;28;20665;-75
2024/02/23 03:48:05;;;;;;;0.52;0.50;;;4.70;99.90;;;;;;5046595;28;20204;-75
2024/02/23 03:50:33;;;;;;;1.38;0.65;;;4.60;99.90;;;;;;5049044;28;20215;-75
2024/02/23 03:53:01;;;;;;;2.17;0.52;;;4.70;99.90;;;;;;5044206;28;20203;-74
2024/02/23 03:55:29;;;;;;;2.80;0.60;;;4.70;99.90;;;;;;5043489;28;20543;-74
2024/02/23 03:57:56;;;;;;;0.50;0.45;;;4.60;99.90;;;;;;5040306;28;20316;-74
2024/02/23 04:00:24;;;;;;;3.45;0.80;;;4.60;99.90;;;;;;5042223;28;20214;-74
2024/02/23 04:02:52;;;;;;;1.10;0.60;;;4.60;99.90;;;;;;5047146;28;20691;-74
2024/02/23 04:05:20;;;;;;;0.43;0.40;;;4.70;99.90;;;;;;5048133;28;20200;-74
2024/02/23 04:07:49;;;;;;;3.17;1.10;;;4.60;99.90;;;;;;5046688;28;20203;-74
2024/02/23 04:10:16;;;;;;;2.63;0.57;;;4.60;99.90;;;;;;5040621;28;20211;-74
2024/02/23 04:12:44;;;;;;;4.00;0.82;;;4.60;99.90;;;;;;5047515;28;20234;-74
2024/02/23 04:15:11;;;;;;;0.90;0.90;;;4.60;99.90;;;;;;5043823;28;20287;-74
2024/02/23 04:17:38;;;;;;;1.20;0.77;;;4.60;99.90;;;;;;5043971;28;20257;-74
2024/02/23 04:20:09;;;;;;;3.30;0.70;;;4.60;99.90;;;;;;5046547;28;20374;-75
2024/02/23 04:22:37;;;;;;;2.05;0.98;;;4.60;99.90;;;;;;5048254;28;20230;-74
2024/02/23 04:25:04;;;;;;;4.75;0.77;;;4.50;99.90;;;;;;5043114;28;20207;-74
2024/02/23 04:27:31;;;;;;;1.00;1.00;;;4.50;99.30;;;;;;5046583;28;20661;-75
2024/02/23 04:29:59;;;;;;;0.85;0.52;;;4.50;99.80;;;;;;5048121;28;20200;-74
2024/02/23 04:32:26;;;;;;;0.95;0.77;;;4.50;99.50;;;;;;5046594;28;20223;-75
2024/02/23 04:34:53;;;;;;;1.42;0.65;;;5.30;99.90;;;;;;5048279;28;20195;-75
2024/02/23 04:37:20;;;;;;;0.65;0.60;;;4.50;99.90;;;;;;5047234;28;20917;-75
2024/02/23 04:39:47;;;;;;;2.38;1.20;;;4.50;99.80;;;;;;5054090;28;20191;-75
2024/02/23 04:42:13;;;;;;;0.70;0.60;;;4.50;99.90;;;;;;5050041;28;20211;-75
2024/02/23 04:44:41;;;;;;;0.70;0.70;;;4.60;99.90;;;;;;5053745;28;20206;-74
2024/02/23 04:47:09;;;;;;;5.25;0.80;;;4.50;99.90;;;;;;5050275;28;20196;-75
2024/02/23 04:49:36;;;;;;;1.15;0.60;;;4.50;99.90;;;;;;5050813;28;20257;-74
2024/02/23 04:52:03;;;;;;;8.00;0.90;;;4.40;99.90;;;;;;5046353;28;20234;-75
2024/02/23 04:54:30;;;;;;;1.15;0.73;;;4.50;99.90;;;;;;5046916;28;20204;-74
2024/02/23 04:56:57;;;;;;;1.42;0.70;;;4.40;99.90;;;;;;5043281;28;20208;-75
2024/02/23 04:59:23;;;;;;;4.45;0.80;;;4.40;99.90;;;;;;5045790;28;20237;-75
2024/02/23 05:01:50;;;;;;;0.98;0.60;;;4.50;99.90;;;;;;5046873;28;20646;-75
2024/02/23 05:04:18;;;;;;;3.40;1.10;;;4.40;99.90;;;;;;5042738;28;20275;-75
2024/02/23 05:06:45;;;;;;;1.75;0.68;;;4.30;99.90;;;;;;5045944;28;20206;-74
2024/02/23 05:09:12;;;;;;;0.55;0.55;;;4.30;99.90;;;;;;5045924;28;20573;-74
2024/02/23 05:11:39;;;;;;;1.58;0.80;;;4.30;99.90;;;;;;5046637;28;20507;-74
2024/02/23 05:14:06;;;;;;;2.17;0.70;;;4.30;99.90;;;;;;5035321;28;20203;-75
2024/02/23 05:16:33;;;;;;;6.30;1.13;;;4.30;99.90;;;;;;5046562;28;20189;-75
2024/02/23 05:19:00;;;;;;;0.73;0.73;;;4.20;99.90;;;;;;5047488;28;20226;-75
2024/02/23 05:21:28;;;;;;;1.13;0.80;;;4.10;99.90;;;;;;5046308;28;20282;-75
2024/02/23 05:23:54;;;;;;;0.95;0.50;;;4.20;99.90;;;;;;5049026;28;20571;-75
2024/02/23 05:26:21;;;;;;;0.88;0.70;;;4.20;99.90;;;;;;5048004;28;20574;-74
2024/02/23 05:28:48;;;;;;;1.20;0.73;;;4.20;99.90;;;;;;5051298;28;20200;-75
2024/02/23 05:31:15;;;;;;;3.83;0.60;;;4.20;99.90;;;;;;5050107;28;20196;-75
2024/02/23 05:33:42;;;;;;;0.60;0.60;;;4.20;99.90;;;;;;5048470;28;20203;-75
2024/02/23 05:36:09;;;;;;;2.50;0.77;;;4.10;99.90;;;;;;5048256;28;20295;-75
2024/02/23 05:38:37;;;;;;;0.85;0.85;;;4.10;99.90;;;;;;5045074;28;20684;-74
2024/02/23 05:41:05;;;;;;;2.85;0.75;;;4.00;99.90;;;;;;5046866;28;20204;-75
2024/02/23 05:43:31;;;;;;;0.98;0.75;;;3.90;99.90;;;;;;5047942;28;20197;-73
2024/02/23 05:45:58;;;;;;;3.40;0.80;;;3.90;99.90;;;;;;5045216;28;20491;-74
2024/02/23 05:48:25;;;;;;;1.08;0.80;;;3.80;99.90;;;;;;5044237;28;20188;-74
2024/02/23 05:50:52;;;;;;;1.50;0.95;;;3.90;99.90;;;;;;5050985;28;20213;-73
2024/02/23 05:53:19;;;;;;;0.90;0.90;;;3.90;99.90;;;;;;5047336;28;20225;-74
2024/02/23 05:55:47;;;;;;;0.60;0.60;;;4.00;99.90;;;;;;5047873;28;20199;-74
2024/02/23 05:58:16;;;;;;;1.70;0.95;;;4.00;99.90;;;;;;5044598;28;20227;-74
2024/02/23 06:00:43;;;;;;;3.38;0.93;;;4.00;99.90;;;;;;5045531;28;20297;-74
2024/02/23 06:03:09;;;;;;;1.35;1.00;;;4.00;99.90;;;;;;5045607;28;20221;-74
2024/02/23 06:05:36;;;;;;;2.40;0.82;;;4.00;99.90;;;;;;5051303;28;20195;-74
2024/02/23 06:08:03;;;;;;;0.88;0.85;;;4.00;99.90;;;;;;5049675;28;20207;-74
2024/02/23 06:10:30;;;;;;;1.25;0.70;;;4.00;99.90;;;;;;5046963;28;20200;-80
2024/02/23 06:12:58;;;;;;;1.13;0.85;;;3.90;99.90;;;;;;5035659;28;20208;-79
2024/02/23 06:15:25;;;;;;;1.20;0.90;;;4.10;99.90;;;;;;5048351;28;20206;-78
2024/02/23 06:17:52;;;;;;;2.55;1.90;;;4.00;99.90;;;;;;5050048;28;20309;-79
2024/02/23 06:20:19;;;;;;;1.48;1.15;;;3.90;99.90;;;;;;5041597;28;20206;-79
2024/02/23 06:22:46;;;;;;;3.13;1.30;;;4.20;99.90;;;;;;5049997;28;20198;-79
2024/02/23 06:25:13;;;;;;;0.63;0.60;;;4.20;99.90;;;;;;5045742;28;20207;-78
2024/02/23 06:27:40;;;;;;;1.45;1.02;;;4.20;99.90;;;;;;5039235;28;20728;-81
2024/02/23 06:30:10;;;;;;;1.38;1.08;;;4.20;99.90;;;;;;5040303;28;20203;-80
2024/02/23 06:32:37;;;;;;;1.10;1.10;;;4.20;99.90;;;;;;5048473;28;20614;-78
2024/02/23 06:35:06;;;;;;;0.70;0.70;;;4.10;99.90;;;;;;5047561;28;20206;-80
2024/02/23 06:37:33;;;;;;;3.03;1.15;;;4.20;99.90;;;;;;5048102;28;20242;-78
2024/02/23 06:40:00;;;;;;;1.15;0.85;;;4.20;99.90;;;;;;5047756;28;20199;-79
2024/02/23 06:42:27;;;;;;;2.08;0.88;;;4.30;99.90;;;;;;5043610;28;20676;-81
2024/02/23 06:44:54;;;;;;;1.58;0.88;;;;;;;;;;5044233;28;20216;-79
2024/02/23 06:47:23;;;;;;;0.77;0.77;;;4.50;99.90;;;;;;5040588;28;20196;-78
2024/02/23 06:49:49;;;;;;;1.40;1.10;;;4.40;99.90;;;;;;5047530;28;20579;-75
2024/02/23 06:52:17;;;;;;;1.23;0.70;;;;;;;;;;5040943;28;20220;-75
2024/02/23 06:54:45;;;;;;;2.10;1.35;;;4.50;99.90;;;;;;5044975;28;20231;-75
2024/02/23 06:57:11;;;;;;;0.70;0.70;;;4.60;99.90;;;;;;5033546;28;20204;-76
2024/02/23 06:59:38;;;;;;;0.90;0.80;;;4.40;99.90;;;;;;5035081;28;20576;-75
2024/02/23 07:02:05;;;;;;;1.13;1.00;;;4.50;99.90;;;;;;5045676;28;20206;-75
2024/02/23 07:04:33;;;;;;;1.70;1.10;;;4.50;99.90;;;;;;5045074;28;20200;-75
2024/02/23 07:07:06;;;;;;;1.50;0.85;;;4.40;99.90;;;;;;5039953;28;20204;-75
2024/02/23 07:09:33;;;;;;;1.08;0.70;;;4.40;99.90;;;;;;5046613;28;20203;-75
2024/02/23 07:12:00;;;;;;;2.38;1.30;;;4.30;99.90;;;;;;5047314;28;20294;-75
2024/02/23 07:14:26;;;;;;;1.05;0.95;;;4.30;99.90;;;;;;5048259;28;20210;-75
2024/02/23 07:16:53;;;;;;;1.90;1.13;;;4.40;99.90;;;;;;5044823;28;20199;-75
2024/02/23 07:19:20;;;;;;;2.25;1.20;;;4.30;99.90;;;;;;5047846;28;20624;-76
2024/02/23 07:21:48;;;;;;;5.55;2.05;;;4.30;99.90;;;;;;5043476;28;20199;-76
2024/02/23 07:24:15;;;;;;;4.10;1.55;;;4.40;99.90;;;;;;5040542;28;20202;-76
2024/02/23 07:26:42;;;;;;;5.35;1.40;;;4.40;99.90;;;;;;5048052;28;20218;-75
2024/02/23 07:29:08;;;;;;;1.63;1.52;;;4.60;99.90;;;;;;5048277;28;20707;-76
2024/02/23 07:31:35;;;;;;;2.13;1.38;;;4.50;99.90;;;;;;5046557;28;20559;-75
2024/02/23 07:34:02;;;;;;;1.10;1.00;;;4.50;99.90;;;;;;5047310;28;20288;-75
2024/02/23 07:36:30;;;;;;;1.75;1.13;;;4.60;99.90;;;;;;5048665;28;20629;-76
2024/02/23 07:38:58;;;;;;;3.10;1.33;;;4.60;99.90;;;;;;5042927;28;20307;-76
2024/02/23 07:41:25;;;;;;;0.93;0.93;;;4.50;99.90;;;;;;5048275;28;20322;-76
2024/02/23 07:43:52;;;;;;;1.48;1.33;;;4.40;99.90;;;;;;5047930;28;20250;-76
2024/02/23 07:46:20;;;;;;;2.38;0.90;;;4.60;99.90;;;;;;5047746;28;20304;-76
2024/02/23 07:48:48;;;;;;;2.50;1.15;;;;;;;;;;5048042;28;20574;-76
2024/02/23 07:51:14;;;;;;;1.63;1.00;;;4.60;99.90;;;;;;5049031;28;20203;-76
2024/02/23 07:53:41;;;;;;;0.80;0.70;;;4.90;99.90;;;;;;5045407;28;20195;-76
2024/02/23 07:56:10;;;;;;;2.88;1.10;;;4.90;99.90;;;;;;5047908;28;20203;-76
2024/02/23 07:58:36;;;;;;;2.90;1.02;;;4.70;99.90;;;;;;5044473;28;20229;-76
2024/02/23 08:01:04;;;;;;;1.52;1.20;;;5.40;99.90;;;;;;5043552;28;20208;-76
2024/02/23 08:03:31;;;;;;;1.52;1.13;;;4.90;99.90;;;;;;5046247;28;20203;-77
2024/02/23 08:05:58;;;;;;;1.50;1.13;;;4.90;99.90;;;;;;5040618;28;20219;-77
2024/02/23 08:08:26;;;;;;;1.42;0.90;;;4.80;99.90;;;;;;5047170;28;20650;-76
2024/02/23 08:10:53;;;;;;;2.00;1.30;;;4.80;99.90;;;;;;5046625;28;20255;-76
2024/02/23 08:13:21;;;;;;;1.98;1.27;;;4.70;99.90;;;;;;5043787;28;20555;-76
2024/02/23 08:15:48;;;;;;;3.45;0.80;;;4.80;99.90;;;;;;5048387;28;20278;-76
2024/02/23 08:18:15;;;;;;;1.73;1.23;;;4.70;99.90;;;;;;5046313;28;20211;-76
2024/02/23 08:20:42;;;;;;;1.27;1.17;;;4.70;99.90;;;;;;5045877;28;20279;-76
2024/02/23 08:23:09;;;;;;;1.17;1.08;;;4.80;99.90;;;;;;5044203;28;20219;-77
2024/02/23 08:25:35;;;;;;;2.25;1.40;;;4.80;99.90;;;;;;5045828;28;20200;-76
2024/02/23 08:28:02;;;;;;;2.83;1.20;;;4.80;99.90;;;;;;5047567;28;20199;-76
2024/02/23 08:30:31;;;;;;;3.20;1.50;;;4.90;99.90;;;;;;5044953;28;20279;-77
2024/02/23 08:32:57;;;;;;;1.45;1.35;;;4.80;99.90;;;;;;5040251;28;20618;-76
2024/02/23 08:35:24;;;;;;;1.55;0.98;;;5.00;99.90;;;;;;5045888;28;20297;-76
2024/02/23 08:37:51;;;;;;;0.93;0.85;;;4.90;99.90;;;;;;5043273;28;20201;-76
2024/02/23 08:40:18;;;;;;;2.83;1.13;;;4.90;99.90;;;;;;5037371;28;20330;-75
2024/02/23 08:42:46;;;;;;;2.28;1.60;;;5.00;99.90;;;;;;5046125;28;20278;-75
2024/02/23 08:45:13;;;;;;;1.58;1.23;;;5.00;99.90;;;;;;5047144;28;20676;-75
2024/02/23 08:47:43;;;;;;;5.45;1.75;;;5.00;99.90;;;;;;5042929;28;20286;-76
2024/02/23 08:50:10;;;;;;;2.30;1.13;;;5.10;99.90;;;;;;5045404;28;20723;-76
2024/02/23 08:52:37;;;;;;;2.70;1.00;;;5.00;99.90;;;;;;5047206;28;20227;-76
2024/02/23 08:55:04;;;;;;;1.77;0.98;;;5.00;99.90;;;;;;5047298;28;20200;-76
2024/02/23 08:57:31;;;;;;;1.70;1.00;;;5.10;99.90;;;;;;5045220;28;20210;-76
2024/02/23 08:59:58;;;;;;;0.85;0.85;;;5.10;99.90;;;;;;5051394;28;20635;-76
2024/02/23 09:02:25;;;;;;;1.67;1.00;;;5.20;99.90;;;;;;5051621;28;20214;-77
2024/02/23 09:04:53;;;;;;;3.50;0.88;;;5.20;99.80;;;;;;5051038;28;20707;-77
2024/02/23 09:07:20;;;;;;;1.15;1.08;;;5.10;99.90;;;;;;5051233;28;20254;-76
2024/02/23 09:09:48;;;;;;;1.48;0.70;;;5.10;99.70;;;;;;5052200;28;20234;-75
2024/02/23 09:12:16;;;;;;;2.85;1.10;;;5.10;99.90;;;;;;5050435;28;20208;-76
2024/02/23 09:14:43;;;;;;;0.70;0.65;;;5.10;99.80;;;;;;5050593;28;20198;-76
2024/02/23 09:17:11;;;;;;;1.80;1.10;;;5.20;99.90;;;;;;5051377;28;20278;-75
2024/02/23 09:19:37;;;;;;;2.42;1.27;;;5.30;99.70;;;;;;5051277;28;20673;-76
2024/02/23 09:22:06;;;;;;;0.90;0.90;;;5.20;99.90;;;;;;5051342;28;20298;-76
2024/02/23 09:24:33;;;;;;;0.70;0.70;;;5.20;99.90;;;;;;5051086;28;20192;-76
2024/02/23 09:26:59;;;;;;;1.40;0.80;;;5.30;99.90;;;;;;5050576;28;20306;-76
2024/02/23 09:29:26;;;;;;;3.28;0.90;;;5.20;99.20;;;;;;5050377;28;20557;-76
2024/02/23 09:31:53;;;;;;;1.13;1.02;;;5.30;99.60;;;;;;5047843;28;20200;-76
2024/02/23 09:34:20;;;;;;;2.05;1.33;;;5.40;99.70;;;;;;5044634;28;20196;-76
2024/02/23 09:36:47;;;;;;;3.97;1.30;;;5.40;99.80;;;;;;5047038;28;20192;-76
2024/02/23 09:39:15;;;;;;;1.00;0.90;;;5.60;99.40;;;;;;5047205;28;20251;-75
2024/02/23 09:41:43;;;;;;;3.35;0.70;;;5.70;98.40;;;;;;5047155;28;20210;-75
2024/02/23 09:44:10;;;;;;;1.23;0.80;;;5.60;98.70;;;;;;5048399;28;20250;-75
2024/02/23 09:46:38;;;;;;;2.20;0.80;;;5.70;98.60;;;;;;5049408;28;20901;-76
2024/02/23 09:49:07;;;;;;;1.08;0.98;;;5.70;98.60;;;;;;5049855;28;20622;-76
2024/02/23 09:51:35;;;;;;;2.33;1.10;;;5.70;99.90;;;;;;5044682;28;20188;-75
2024/02/23 09:54:03;;;;;;;4.55;1.17;;;5.80;98.70;;;;;;5046924;28;20259;-76
2024/02/23 09:56:33;;;;;;;2.00;0.90;;;5.90;98.60;;;;;;5047531;28;20188;-75
2024/02/23 09:59:02;;;;;;;2.55;0.80;;;6.00;98.30;;;;;;5041817;28;20232;-75
2024/02/23 10:01:32;;;;;;;1.25;1.05;;;6.10;97.40;;;;;;5041483;28;20286;-75
2024/02/23 10:03:59;;;;;;;3.50;1.45;;;6.20;97.70;;;;;;5033990;28;20193;-75
2024/02/23 10:06:27;;;;;;;1.40;0.98;;;6.40;97.50;;;;;;5046387;28;20701;-76
2024/02/23 10:08:54;;;;;;;1.85;0.80;;;6.50;97.50;;;;;;5038674;28;20221;-75
2024/02/23 10:11:22;;;;;;;2.67;0.90;;;6.50;97.90;;;;;;5034695;28;20291;-75
2024/02/23 10:13:51;;;;;;;2.90;1.13;;;6.50;97.50;;;;;;5039931;28;20564;-75
2024/02/23 10:16:20;;;;;;;0.80;0.80;;;6.50;97.20;;;;;;5033431;28;20684;-75
2024/02/23 10:18:48;;;;;;;4.50;1.08;;;6.60;96.70;;;;;;5033921;28;20315;-75
2024/02/23 10:21:15;;;;;;;1.45;0.90;;;6.70;96.00;;;;;;5041822;28;20208;-75
2024/02/23 10:23:41;;;;;;;0.85;0.60;;;6.70;96.00;;;;;;5040975;28;20201;-75
2024/02/23 10:26:09;;;;;;;3.05;1.20;;;6.70;96.20;;;;;;5037300;28;20252;-76
2024/02/23 10:28:36;;;;;;;2.45;0.70;;;6.80;95.80;;;;;;5039927;28;20196;-75
2024/02/23 10:31:05;;;;;;;2.17;0.60;;;6.70;96.40;;;;;;5039478;28;20303;-75
2024/02/23 10:33:32;;;;;;;0.50;0.50;;;7.00;95.10;;;;;;5034612;28;20201;-75
2024/02/23 10:36:01;;;;;;;0.90;0.90;;;7.00;95.50;;;;;;5036296;28;20239;-75
2024/02/23 10:38:29;;;;;;;2.15;1.08;;;6.90;95.20;;;;;;5046154;28;20203;-75
2024/02/23 10:40:57;;;;;;;2.85;0.75;;;7.00;94.50;;;;;;5040856;28;20231;-76
2024/02/23 10:43:34;;;;;;;0.98;0.88;;;6.80;94.20;;;;;;5035254;28;20199;-75
2024/02/23 10:46:02;;;;;;;1.60;1.05;;;7.00;95.10;;;;;;5036506;28;20286;-76
2024/02/23 10:48:31;;;;;;;1.85;0.82;;;7.20;94.30;;;;;;5040026;28;20284;-76
2024/02/23 10:50:58;;;;;;;2.20;0.93;;;7.00;94.70;;;;;;5036374;28;20201;-76
2024/02/23 10:53:25;;;;;;;2.83;1.30;;;7.10;95.10;;;;;;5038656;28;20778;-76
2024/02/23 10:55:56;;;;;;;2.88;1.35;;;7.10;95.10;;;;;;5045059;28;20629;-76
2024/02/23 10:58:23;;;;;;;1.00;0.88;;;7.50;93.90;;;;;;5042443;28;20215;-76
2024/02/23 11:00:50;;;;;;;1.45;0.60;;;7.40;93.70;;;;;;5037405;28;20224;-75
2024/02/23 11:03:18;;;;;;;4.85;0.90;;;7.20;93.50;;;;;;5033206;28;20300;-75
2024/02/23 11:05:50;;;;;;;5.37;1.33;;;7.30;94.20;;;;;;5032131;28;20658;-76
2024/02/23 11:08:19;;;;;;;3.60;1.73;;;7.40;94.30;;;;;;5044645;28;20627;-76
2024/02/23 11:10:51;;;;;;;2.83;0.90;;;7.30;93.50;;;;;;5039944;28;20630;-75
2024/02/23 11:13:18;;;;;;;5.40;1.23;;;7.40;93.20;;;;;;5036083;28;20623;-76
2024/02/23 11:15:45;;;;;;;2.23;1.07;;;7.30;93.40;;;;;;5037564;28;21165;-76
2024/02/23 11:18:24;;;;;;;2.73;0.50;;;7.40;93.00;;;;;;5046014;28;20634;-75
2024/02/23 11:24:17;;;;;;;2.40;1.10;;;7.40;93.30;;;;;;5034350;28;20204;-76
2024/02/23 11:26:43;;;;;;;2.40;0.70;;;7.40;94.10;;;;;;5041729;28;20708;-76
2024/02/23 11:29:12;;;;;;;3.33;1.03;;;7.60;93.80;;;;;;5044031;28;20642;-76
2024/02/23 11:31:46;;;;;;;0.97;0.60;;;7.40;93.00;;;;;;5045660;28;20611;-76
2024/02/23 11:34:13;;;;;;;0.50;0.50;;;7.30;92.20;;;;;;5046064;28;20721;-75
2024/02/23 11:36:40;;;;;;;6.43;1.70;;;7.40;92.80;;;;;;5048672;28;20617;-75
2024/02/23 11:39:07;;;;;;;1.07;0.73;;;7.60;91.90;;;;;;5050698;28;20630;-75
2024/02/23 11:41:38;;;;;;;6.77;2.00;;;7.70;92.80;;;;;;5048593;28;20662;-76
2024/02/23 11:44:07;;;;;;;2.63;0.73;;;7.80;92.30;;;;;;5048955;28;20661;-75
2024/02/23 11:46:33;;;;;;;2.13;0.80;;;7.80;92.10;;;;;;5048756;28;20623;-75
2024/02/23 11:49:00;;;;;;;1.53;0.90;;;7.80;92.50;;;;;;5040685;28;20615;-75
2024/02/23 11:51:29;;;;;;;3.30;1.23;;;7.60;92.50;;;;;;5040415;28;20619;-75
2024/02/23 11:53:58;;;;;;;4.10;0.80;;;7.70;95.40;;;;;;5039408;28;20642;-75
2024/02/23 11:56:25;;;;;;;4.10;1.00;;;7.70;93.30;;;;;;5043997;28;20970;-75
2024/02/23 11:58:54;;;;;;;2.83;0.93;;;7.80;92.40;;;;;;5041820;28;21003;-75
2024/02/23 12:01:23;;;;;;;3.30;0.87;;;7.60;92.20;;;;;;5046668;28;20759;-75
2024/02/23 12:03:50;;;;;;;2.07;0.90;;;7.90;92.20;;;;;;5042781;28;20629;-76
2024/02/23 12:06:18;;;;;;;1.43;0.80;;;8.00;92.10;;;;;;5046388;28;20630;-76
2024/02/23 12:08:46;;;;;;;1.90;0.60;;;8.20;92.10;;;;;;5046555;28;20992;-74
2024/02/23 12:11:13;;;;;;;8.27;1.87;;;8.20;91.60;;;;;;5044831;28;20635;-75
2024/02/23 12:13:41;;;;;;;5.87;0.97;;;8.30;91.80;;;;;;5038888;28;20622;-75
2024/02/23 12:16:10;;;;;;;1.33;0.90;;;8.00;92.30;;;;;;5046040;28;20666;-75
2024/02/23 12:18:37;;;;;;;1.27;1.17;;;8.10;91.80;;;;;;5042182;28;20626;-76
2024/02/23 12:21:07;;;;;;;1.27;0.70;;;8.40;91.20;;;;;;5040645;28;20681;-75
2024/02/23 12:23:41;;;;;;;2.17;0.97;;;8.30;91.60;;;;;;5041124;28;20619;-73
2024/02/23 12:26:08;;;;;;;2.33;1.10;;;8.30;91.10;;;;;;5040332;28;21265;-75
2024/02/23 12:28:35;;;;;;;3.53;1.43;;;8.30;90.90;;;;;;5041769;28;20713;-76
2024/02/23 12:31:03;;;;;;;5.37;1.30;;;8.20;90.80;;;;;;5038070;28;21447;-75
2024/02/23 12:33:34;;;;;;;2.93;0.87;;;8.20;91.00;;;;;;5038640;28;20633;-74
2024/02/23 12:36:05;;;;;;;2.83;2.50;;;8.20;90.70;;;;;;5033070;28;21448;-76
2024/02/23 12:38:32;;;;;;;0.90;0.83;;;8.20;91.10;;;;;;5045088;28;21063;-79
2024/02/23 12:41:00;;;;;;;2.37;1.03;;;8.10;91.10;;;;;;5042488;28;22598;-75
2024/02/23 12:43:27;;;;;;;8.50;1.40;;;8.00;91.10;;;;;;5045837;28;20625;-74
2024/02/23 12:45:55;;;;;;;0.77;0.70;;;8.10;91.60;;;;;;5041446;28;20634;-74
2024/02/23 12:48:22;;;;;;;1.60;1.00;;;8.10;90.70;;;;;;5044407;28;20630;-75
2024/02/23 12:50:51;;;;;;;4.47;0.93;;;8.00;90.90;;;;;;5046643;28;20742;-74
2024/02/23 12:53:33;;;;;;;1.80;0.87;;;8.00;91.00;;;;;;5046277;28;21165;-74
2024/02/23 12:56:00;;;;;;;1.60;0.80;;;7.90;91.80;;;;;;5038913;28;20622;-74
2024/02/23 12:58:27;;;;;;;2.40;0.80;;;8.10;91.20;;;;;;5046218;28;20738;-74
2024/02/23 13:00:54;;;;;;;6.40;1.20;;;8.30;91.10;;;;;;5046199;28;20735;-75
2024/02/23 13:03:21;;;;;;;3.00;1.00;;;8.20;91.70;;;;;;5042666;28;21065;-75